sensor_id;sensor_type;location;lat;lon;timestamp;pressure;altitude;pressure_sealevel;temperature;humidity
46379;BME280;32084;42.254;22.744;2022-10-31T00:00:43;95688.63;;;13.27;58.18
46379;BME280;32084;42.254;22.744;2022-10-31T00:03:09;95686.63;;;13.29;58.10
46379;BME280;32084;42.254;22.744;2022-10-31T00:05:35;95689.28;;;13.21;58.33
46379;BME280;32084;42.254;22.744;2022-10-31T00:08:01;95697.75;;;13.34;57.85
46379;BME280;32084;42.254;22.744;2022-10-31T00:10:27;95689.25;;;13.13;58.06
46379;BME280;32084;42.254;22.744;2022-10-31T00:12:54;95687.72;;;13.02;58.46
46379;BME280;32084;42.254;22.744;2022-10-31T00:15:20;95691.75;;;12.98;58.67
46379;BME280;32084;42.254;22.744;2022-10-31T00:17:46;95695.09;;;13.00;58.63
46379;BME280;32084;42.254;22.744;2022-10-31T00:20:12;95694.06;;;12.84;59.10
46379;BME280;32084;42.254;22.744;2022-10-31T00:22:38;95686.09;;;12.66;59.76
46379;BME280;32084;42.254;22.744;2022-10-31T00:25:04;95688.78;;;12.75;59.63
46379;BME280;32084;42.254;22.744;2022-10-31T00:27:30;95691.84;;;12.80;59.42
46379;BME280;32084;42.254;22.744;2022-10-31T00:29:56;95690.16;;;12.79;59.42
46379;BME280;32084;42.254;22.744;2022-10-31T00:32:22;95689.53;;;12.93;58.90
46379;BME280;32084;42.254;22.744;2022-10-31T00:34:48;95682.59;;;12.82;59.02
46379;BME280;32084;42.254;22.744;2022-10-31T00:37:14;95677.03;;;12.67;59.58
46379;BME280;32084;42.254;22.744;2022-10-31T00:39:40;95679.94;;;12.82;59.21
46379;BME280;32084;42.254;22.744;2022-10-31T00:42:06;95676.38;;;12.74;59.38
46379;BME280;32084;42.254;22.744;2022-10-31T00:44:32;95677.06;;;12.76;59.59
46379;BME280;32084;42.254;22.744;2022-10-31T00:46:58;95678.44;;;12.88;58.82
46379;BME280;32084;42.254;22.744;2022-10-31T00:49:24;95672.06;;;12.81;59.01
46379;BME280;32084;42.254;22.744;2022-10-31T00:51:50;95669.81;;;12.68;59.32
46379;BME280;32084;42.254;22.744;2022-10-31T00:54:16;95676.19;;;12.67;59.46
46379;BME280;32084;42.254;22.744;2022-10-31T00:56:42;95679.78;;;12.84;58.87
46379;BME280;32084;42.254;22.744;2022-10-31T00:59:08;95680.19;;;12.63;58.96
46379;BME280;32084;42.254;22.744;2022-10-31T01:01:34;95678.44;;;12.45;59.62
46379;BME280;32084;42.254;22.744;2022-10-31T01:04:00;95681.63;;;12.41;59.96
46379;BME280;32084;42.254;22.744;2022-10-31T01:06:26;95698.72;;;12.48;59.90
46379;BME280;32084;42.254;22.744;2022-10-31T01:08:52;95687.28;;;12.38;59.95
46379;BME280;32084;42.254;22.744;2022-10-31T01:11:20;95687.28;;;12.38;59.94
46379;BME280;32084;42.254;22.744;2022-10-31T01:13:47;95689.16;;;12.45;59.88
46379;BME280;32084;42.254;22.744;2022-10-31T01:16:17;95690.50;;;12.41;60.07
46379;BME280;32084;42.254;22.744;2022-10-31T01:18:43;95682.19;;;12.26;60.10
46379;BME280;32084;42.254;22.744;2022-10-31T01:21:10;95688.66;;;12.16;60.19
46379;BME280;32084;42.254;22.744;2022-10-31T01:23:37;95685.16;;;12.23;60.26
46379;BME280;32084;42.254;22.744;2022-10-31T01:28:32;95687.53;;;12.00;60.95
46379;BME280;32084;42.254;22.744;2022-10-31T01:31:06;95697.47;;;12.08;60.67
46379;BME280;32084;42.254;22.744;2022-10-31T01:33:33;95685.81;;;12.17;60.57
46379;BME280;32084;42.254;22.744;2022-10-31T01:35:59;95681.47;;;12.16;60.59
46379;BME280;32084;42.254;22.744;2022-10-31T01:38:25;95683.47;;;12.14;60.88
46379;BME280;32084;42.254;22.744;2022-10-31T01:40:51;95678.19;;;12.04;60.76
46379;BME280;32084;42.254;22.744;2022-10-31T01:43:18;95685.19;;;11.97;60.99
46379;BME280;32084;42.254;22.744;2022-10-31T01:45:45;95685.91;;;12.07;60.94
46379;BME280;32084;42.254;22.744;2022-10-31T01:48:13;95681.09;;;12.11;60.94
46379;BME280;32084;42.254;22.744;2022-10-31T01:50:41;95686.72;;;12.00;61.30
46379;BME280;32084;42.254;22.744;2022-10-31T01:53:08;95682.19;;;12.00;61.06
46379;BME280;32084;42.254;22.744;2022-10-31T01:55:40;95684.41;;;12.05;60.81
46379;BME280;32084;42.254;22.744;2022-10-31T01:58:09;95685.69;;;12.01;60.77
46379;BME280;32084;42.254;22.744;2022-10-31T02:00:36;95686.84;;;11.98;61.02
46379;BME280;32084;42.254;22.744;2022-10-31T02:03:02;95691.16;;;11.91;60.97
46379;BME280;32084;42.254;22.744;2022-10-31T02:05:28;95688.03;;;11.96;61.00
46379;BME280;32084;42.254;22.744;2022-10-31T02:07:57;95688.06;;;12.04;60.97
46379;BME280;32084;42.254;22.744;2022-10-31T02:10:24;95685.88;;;11.99;60.97
46379;BME280;32084;42.254;22.744;2022-10-31T02:12:51;95698.63;;;11.87;61.35
46379;BME280;32084;42.254;22.744;2022-10-31T02:15:19;95695.44;;;11.84;61.70
46379;BME280;32084;42.254;22.744;2022-10-31T02:17:45;95693.38;;;11.96;61.26
46379;BME280;32084;42.254;22.744;2022-10-31T02:20:13;95683.66;;;11.95;61.47
46379;BME280;32084;42.254;22.744;2022-10-31T02:27:55;95690.13;;;12.10;61.42
46379;BME280;32084;42.254;22.744;2022-10-31T02:30:27;95691.50;;;12.14;61.49
46379;BME280;32084;42.254;22.744;2022-10-31T02:33:00;95683.47;;;12.14;61.66
46379;BME280;32084;42.254;22.744;2022-10-31T02:41:10;95677.94;;;12.16;62.17
46379;BME280;32084;42.254;22.744;2022-10-31T02:43:40;95680.31;;;12.19;62.06
46379;BME280;32084;42.254;22.744;2022-10-31T02:48:35;95688.28;;;12.10;62.57
46379;BME280;32084;42.254;22.744;2022-10-31T02:51:03;95674.81;;;12.02;62.68
46379;BME280;32084;42.254;22.744;2022-10-31T02:53:33;95674.00;;;12.02;62.68
46379;BME280;32084;42.254;22.744;2022-10-31T02:56:11;95674.03;;;12.10;62.59
46379;BME280;32084;42.254;22.744;2022-10-31T02:58:41;95678.50;;;12.01;62.67
46379;BME280;32084;42.254;22.744;2022-10-31T03:11:39;95700.78;;;12.02;62.75
46379;BME280;32084;42.254;22.744;2022-10-31T03:14:14;95695.13;;;12.05;62.83
46379;BME280;32084;42.254;22.744;2022-10-31T03:16:49;95695.13;;;12.05;62.53
46379;BME280;32084;42.254;22.744;2022-10-31T03:24:35;95708.53;;;12.05;62.60
46379;BME280;32084;42.254;22.744;2022-10-31T03:27:03;95705.97;;;11.85;62.90
46379;BME280;32084;42.254;22.744;2022-10-31T03:29:32;95709.22;;;11.53;63.98
46379;BME280;32084;42.254;22.744;2022-10-31T03:32:01;95709.31;;;11.43;64.31
46379;BME280;32084;42.254;22.744;2022-10-31T03:34:29;95707.91;;;11.57;63.60
46379;BME280;32084;42.254;22.744;2022-10-31T03:36:57;95710.66;;;11.83;62.95
46379;BME280;32084;42.254;22.744;2022-10-31T03:39:25;95704.94;;;11.96;62.49
46379;BME280;32084;42.254;22.744;2022-10-31T03:42:00;95711.34;;;12.03;62.48
46379;BME280;32084;42.254;22.744;2022-10-31T03:44:28;95714.00;;;11.95;62.82
46379;BME280;32084;42.254;22.744;2022-10-31T03:46:55;95721.31;;;11.93;62.88
46379;BME280;32084;42.254;22.744;2022-10-31T03:49:21;95721.38;;;11.83;63.40
46379;BME280;32084;42.254;22.744;2022-10-31T03:56:50;95718.47;;;11.95;62.68
46379;BME280;32084;42.254;22.744;2022-10-31T03:59:20;95720.53;;;12.01;62.55
46379;BME280;32084;42.254;22.744;2022-10-31T04:01:49;95730.38;;;11.92;62.84
46379;BME280;32084;42.254;22.744;2022-10-31T04:04:17;95724.19;;;11.91;62.94
46379;BME280;32084;42.254;22.744;2022-10-31T04:06:44;95726.91;;;12.00;63.03
46379;BME280;32084;42.254;22.744;2022-10-31T04:09:11;95729.88;;;11.97;63.33
46379;BME280;32084;42.254;22.744;2022-10-31T04:11:42;95728.38;;;11.94;63.26
46379;BME280;32084;42.254;22.744;2022-10-31T04:14:10;95725.84;;;11.93;63.43
46379;BME280;32084;42.254;22.744;2022-10-31T04:16:38;95740.25;;;11.91;63.36
46379;BME280;32084;42.254;22.744;2022-10-31T04:19:05;95734.22;;;11.89;63.40
46379;BME280;32084;42.254;22.744;2022-10-31T04:21:31;95734.03;;;11.91;63.27
46379;BME280;32084;42.254;22.744;2022-10-31T04:23:57;95741.47;;;11.97;63.31
46379;BME280;32084;42.254;22.744;2022-10-31T04:26:23;95741.63;;;11.96;63.49
46379;BME280;32084;42.254;22.744;2022-10-31T04:28:49;95748.50;;;11.98;63.59
46379;BME280;32084;42.254;22.744;2022-10-31T04:31:15;95744.06;;;12.07;63.44
46379;BME280;32084;42.254;22.744;2022-10-31T04:33:42;95751.75;;;12.28;63.37
46379;BME280;32084;42.254;22.744;2022-10-31T04:36:08;95747.69;;;12.24;63.07
46379;BME280;32084;42.254;22.744;2022-10-31T04:38:34;95748.63;;;12.15;63.48
46379;BME280;32084;42.254;22.744;2022-10-31T04:41:00;95749.94;;;12.10;64.06
46379;BME280;32084;42.254;22.744;2022-10-31T04:43:26;95756.88;;;12.21;63.95
46379;BME280;32084;42.254;22.744;2022-10-31T04:45:52;95748.22;;;12.27;63.62
46379;BME280;32084;42.254;22.744;2022-10-31T04:48:18;95755.75;;;12.24;63.80
46379;BME280;32084;42.254;22.744;2022-10-31T04:50:44;95760.56;;;12.20;63.76
46379;BME280;32084;42.254;22.744;2022-10-31T04:53:10;95758.97;;;12.09;64.06
46379;BME280;32084;42.254;22.744;2022-10-31T04:55:36;95753.63;;;12.09;64.25
46379;BME280;32084;42.254;22.744;2022-10-31T04:58:02;95756.53;;;12.16;64.32
46379;BME280;32084;42.254;22.744;2022-10-31T05:00:28;95758.19;;;12.17;64.64
46379;BME280;32084;42.254;22.744;2022-10-31T05:02:55;95753.66;;;12.18;64.44
46379;BME280;32084;42.254;22.744;2022-10-31T05:05:22;95765.06;;;12.20;64.78
46379;BME280;32084;42.254;22.744;2022-10-31T05:07:49;95754.56;;;12.26;64.37
46379;BME280;32084;42.254;22.744;2022-10-31T05:10:16;95766.28;;;12.25;64.44
46379;BME280;32084;42.254;22.744;2022-10-31T05:12:47;95766.00;;;12.28;64.28
46379;BME280;32084;42.254;22.744;2022-10-31T05:15:14;95760.91;;;12.25;64.69
46379;BME280;32084;42.254;22.744;2022-10-31T05:17:40;95766.03;;;12.37;64.75
46379;BME280;32084;42.254;22.744;2022-10-31T05:20:06;95770.03;;;12.33;64.97
46379;BME280;32084;42.254;22.744;2022-10-31T05:22:32;95778.75;;;12.35;65.15
46379;BME280;32084;42.254;22.744;2022-10-31T05:24:58;95770.03;;;12.33;65.26
46379;BME280;32084;42.254;22.744;2022-10-31T05:27:24;95777.13;;;12.42;64.68
46379;BME280;32084;42.254;22.744;2022-10-31T05:29:50;95773.47;;;12.43;64.68
46379;BME280;32084;42.254;22.744;2022-10-31T05:32:16;95777.50;;;12.47;65.07
46379;BME280;32084;42.254;22.744;2022-10-31T05:34:42;95782.13;;;12.37;65.22
46379;BME280;32084;42.254;22.744;2022-10-31T05:37:08;95783.19;;;12.44;65.24
46379;BME280;32084;42.254;22.744;2022-10-31T05:39:34;95794.13;;;12.50;65.11
46379;BME280;32084;42.254;22.744;2022-10-31T05:42:00;95788.63;;;12.52;65.17
46379;BME280;32084;42.254;22.744;2022-10-31T05:44:26;95784.97;;;12.61;65.03
46379;BME280;32084;42.254;22.744;2022-10-31T05:46:53;95788.78;;;12.77;64.39
46379;BME280;32084;42.254;22.744;2022-10-31T05:49:19;95800.00;;;12.80;64.38
46379;BME280;32084;42.254;22.744;2022-10-31T05:51:45;95800.22;;;12.87;64.19
46379;BME280;32084;42.254;22.744;2022-10-31T05:54:11;95792.69;;;12.91;64.17
46379;BME280;32084;42.254;22.744;2022-10-31T05:56:37;95799.91;;;12.90;64.03
46379;BME280;32084;42.254;22.744;2022-10-31T05:59:03;95803.28;;;12.92;64.05
46379;BME280;32084;42.254;22.744;2022-10-31T06:01:29;95813.53;;;12.97;64.19
46379;BME280;32084;42.254;22.744;2022-10-31T06:03:54;95805.59;;;13.21;63.31
46379;BME280;32084;42.254;22.744;2022-10-31T06:06:21;95809.81;;;13.75;62.78
46379;BME280;32084;42.254;22.744;2022-10-31T06:08:47;95812.38;;;14.09;60.81
46379;BME280;32084;42.254;22.744;2022-10-31T06:11:13;95810.72;;;14.49;60.50
46379;BME280;32084;42.254;22.744;2022-10-31T06:13:39;95811.38;;;14.76;59.53
46379;BME280;32084;42.254;22.744;2022-10-31T06:19:45;95821.50;;;16.32;55.63
46379;BME280;32084;42.254;22.744;2022-10-31T06:22:14;95823.81;;;17.85;50.74
46379;BME280;32084;42.254;22.744;2022-10-31T06:24:40;95842.72;;;20.39;44.96
46379;BME280;32084;42.254;22.744;2022-10-31T06:27:06;95847.81;;;23.60;37.61
46379;BME280;32084;42.254;22.744;2022-10-31T06:29:32;95871.66;;;26.64;32.97
46379;BME280;32084;42.254;22.744;2022-10-31T06:31:58;95886.03;;;28.90;29.30
46379;BME280;32084;42.254;22.744;2022-10-31T06:34:24;95883.22;;;28.58;29.22
46379;BME280;32084;42.254;22.744;2022-10-31T06:36:50;95864.38;;;24.69;34.35
46379;BME280;32084;42.254;22.744;2022-10-31T06:39:16;95834.56;;;21.66;39.83
46379;BME280;32084;42.254;22.744;2022-10-31T06:41:42;95825.63;;;19.77;43.73
46379;BME280;32084;42.254;22.744;2022-10-31T06:44:08;95810.75;;;18.75;45.92
46379;BME280;32084;42.254;22.744;2022-10-31T06:46:34;95808.84;;;18.04;47.21
46379;BME280;32084;42.254;22.744;2022-10-31T06:49:00;95813.00;;;17.55;49.06
46379;BME280;32084;42.254;22.744;2022-10-31T06:51:26;95816.09;;;17.37;50.25
46379;BME280;32084;42.254;22.744;2022-10-31T06:53:52;95812.75;;;17.21;50.34
46379;BME280;32084;42.254;22.744;2022-10-31T06:56:18;95816.28;;;17.21;51.35
46379;BME280;32084;42.254;22.744;2022-10-31T06:58:44;95814.72;;;17.27;51.10
46379;BME280;32084;42.254;22.744;2022-10-31T07:01:10;95822.72;;;17.20;51.82
46379;BME280;32084;42.254;22.744;2022-10-31T07:03:36;95831.22;;;17.17;52.25
46379;BME280;32084;42.254;22.744;2022-10-31T07:06:02;95817.41;;;17.42;51.63
46379;BME280;32084;42.254;22.744;2022-10-31T07:08:28;95825.28;;;17.88;50.57
46379;BME280;32084;42.254;22.744;2022-10-31T07:10:55;95826.59;;;18.13;50.41
46379;BME280;32084;42.254;22.744;2022-10-31T07:13:22;95826.78;;;18.27;49.94
46379;BME280;32084;42.254;22.744;2022-10-31T07:15:52;95847.84;;;20.76;44.31
46379;BME280;32084;42.254;22.744;2022-10-31T07:18:18;95852.50;;;22.77;39.78
46379;BME280;32084;42.254;22.744;2022-10-31T07:20:44;95847.97;;;23.65;38.47
46379;BME280;32084;42.254;22.744;2022-10-31T07:23:10;95845.34;;;23.08;38.50
46379;BME280;32084;42.254;22.744;2022-10-31T07:25:40;95840.63;;;22.33;40.10
46379;BME280;32084;42.254;22.744;2022-10-31T07:28:06;95857.66;;;24.84;36.22
46379;BME280;32084;42.254;22.744;2022-10-31T07:30:32;95877.66;;;27.58;31.25
46379;BME280;32084;42.254;22.744;2022-10-31T07:32:58;95869.53;;;26.83;32.55
46379;BME280;32084;42.254;22.744;2022-10-31T07:35:25;95865.03;;;25.25;34.57
46379;BME280;32084;42.254;22.744;2022-10-31T07:37:51;95861.81;;;25.40;35.38
46379;BME280;32084;42.254;22.744;2022-10-31T07:40:18;95869.97;;;27.94;31.55
46379;BME280;32084;42.254;22.744;2022-10-31T07:42:45;95890.78;;;31.33;27.10
46379;BME280;32084;42.254;22.744;2022-10-31T07:45:12;95912.34;;;33.44;23.90
46379;BME280;32084;42.254;22.744;2022-10-31T07:50:05;95910.75;;;33.38;23.92
46379;BME280;32084;42.254;22.744;2022-10-31T07:52:31;95903.66;;;33.90;23.45
46379;BME280;32084;42.254;22.744;2022-10-31T07:54:57;95885.84;;;31.77;25.89
46379;BME280;32084;42.254;22.744;2022-10-31T07:57:23;95909.84;;;33.82;24.01
46379;BME280;32084;42.254;22.744;2022-10-31T07:59:49;95910.16;;;34.63;23.04
46379;BME280;32084;42.254;22.744;2022-10-31T08:02:15;95907.44;;;34.04;23.48
46379;BME280;32084;42.254;22.744;2022-10-31T08:04:41;95913.09;;;35.15;21.98
46379;BME280;32084;42.254;22.744;2022-10-31T08:07:07;95918.91;;;36.83;20.80
46379;BME280;32084;42.254;22.744;2022-10-31T08:09:33;95931.06;;;38.41;19.43
46379;BME280;32084;42.254;22.744;2022-10-31T08:11:59;95898.56;;;36.08;20.79
46379;BME280;32084;42.254;22.744;2022-10-31T08:14:25;95885.69;;;32.59;23.97
46379;BME280;32084;42.254;22.744;2022-10-31T08:16:52;95864.97;;;30.03;27.04
46379;BME280;32084;42.254;22.744;2022-10-31T08:19:18;95851.16;;;29.98;27.31
46379;BME280;32084;42.254;22.744;2022-10-31T08:21:44;95846.47;;;29.61;27.91
46379;BME280;32084;42.254;22.744;2022-10-31T08:24:10;95837.69;;;28.99;28.84
46379;BME280;32084;42.254;22.744;2022-10-31T08:26:36;95830.13;;;28.57;29.53
46379;BME280;32084;42.254;22.744;2022-10-31T08:29:02;95819.34;;;27.17;31.84
46379;BME280;32084;42.254;22.744;2022-10-31T08:31:29;95807.09;;;26.16;33.37
46379;BME280;32084;42.254;22.744;2022-10-31T08:33:55;95798.03;;;25.28;34.95
46379;BME280;32084;42.254;22.744;2022-10-31T08:36:21;95814.81;;;26.77;33.11
46379;BME280;32084;42.254;22.744;2022-10-31T08:38:47;95828.59;;;30.11;28.19
46379;BME280;32084;42.254;22.744;2022-10-31T08:41:14;95826.28;;;29.13;29.97
46379;BME280;32084;42.254;22.744;2022-10-31T08:43:40;95815.19;;;27.31;32.15
46379;BME280;32084;42.254;22.744;2022-10-31T08:46:06;95816.88;;;27.49;32.16
46379;BME280;32084;42.254;22.744;2022-10-31T08:48:32;95815.94;;;27.43;31.98
46379;BME280;32084;42.254;22.744;2022-10-31T08:50:59;95811.97;;;26.14;33.63
46379;BME280;32084;42.254;22.744;2022-10-31T08:53:26;95808.72;;;25.53;34.77
46379;BME280;32084;42.254;22.744;2022-10-31T08:55:54;95815.00;;;26.58;33.29
46379;BME280;32084;42.254;22.744;2022-10-31T08:58:20;95813.19;;;27.10;33.14
46379;BME280;32084;42.254;22.744;2022-10-31T09:00:47;95810.84;;;26.67;33.33
46379;BME280;32084;42.254;22.744;2022-10-31T09:03:20;95798.09;;;25.68;35.19
46379;BME280;32084;42.254;22.744;2022-10-31T09:05:47;95796.28;;;24.80;36.46
46379;BME280;32084;42.254;22.744;2022-10-31T09:08:14;95788.53;;;24.34;37.81
46379;BME280;32084;42.254;22.744;2022-10-31T09:10:40;95797.03;;;24.26;37.63
46379;BME280;32084;42.254;22.744;2022-10-31T09:13:08;95790.97;;;24.24;38.21
46379;BME280;32084;42.254;22.744;2022-10-31T09:15:35;95785.31;;;24.38;37.98
46379;BME280;32084;42.254;22.744;2022-10-31T09:18:02;95781.50;;;24.57;37.96
46379;BME280;32084;42.254;22.744;2022-10-31T09:20:28;95781.63;;;24.62;37.36
46379;BME280;32084;42.254;22.744;2022-10-31T09:22:55;95788.69;;;24.82;36.55
46379;BME280;32084;42.254;22.744;2022-10-31T09:25:24;95786.91;;;25.11;36.03
46379;BME280;32084;42.254;22.744;2022-10-31T09:27:50;95779.81;;;25.22;36.07
46379;BME280;32084;42.254;22.744;2022-10-31T09:30:16;95783.38;;;25.34;35.76
46379;BME280;32084;42.254;22.744;2022-10-31T09:32:42;95782.34;;;25.87;35.18
46379;BME280;32084;42.254;22.744;2022-10-31T09:35:08;95780.41;;;26.12;34.57
46379;BME280;32084;42.254;22.744;2022-10-31T09:37:35;95786.63;;;26.64;33.78
46379;BME280;32084;42.254;22.744;2022-10-31T09:40:01;95793.47;;;27.46;32.85
46379;BME280;32084;42.254;22.744;2022-10-31T09:42:36;95793.63;;;28.18;31.58
46379;BME280;32084;42.254;22.744;2022-10-31T09:45:11;95797.16;;;29.22;30.98
46379;BME280;32084;42.254;22.744;2022-10-31T09:52:52;95816.88;;;32.32;25.93
46379;BME280;32084;42.254;22.744;2022-10-31T09:57:52;95825.31;;;32.61;25.07
46379;BME280;32084;42.254;22.744;2022-10-31T10:00:19;95812.41;;;32.36;25.66
46379;BME280;32084;42.254;22.744;2022-10-31T10:05:37;95802.06;;;31.81;26.30
46379;BME280;32084;42.254;22.744;2022-10-31T10:08:08;95797.44;;;31.25;27.07
46379;BME280;32084;42.254;22.744;2022-10-31T10:24:12;95752.81;;;27.26;32.27
46379;BME280;32084;42.254;22.744;2022-10-31T10:26:46;95749.53;;;26.45;33.64
46379;BME280;32084;42.254;22.744;2022-10-31T10:31:42;95739.25;;;25.42;33.80
46379;BME280;32084;42.254;22.744;2022-10-31T10:34:14;95735.75;;;25.11;35.48
46379;BME280;32084;42.254;22.744;2022-10-31T10:36:44;95731.72;;;24.90;36.00
46379;BME280;32084;42.254;22.744;2022-10-31T10:39:22;95723.97;;;24.75;35.84
46379;BME280;32084;42.254;22.744;2022-10-31T10:41:49;95715.31;;;24.67;36.25
46379;BME280;32084;42.254;22.744;2022-10-31T10:44:38;95713.84;;;24.52;36.13
46379;BME280;32084;42.254;22.744;2022-10-31T10:47:25;95708.00;;;24.49;36.56
46379;BME280;32084;42.254;22.744;2022-10-31T10:50:06;95708.47;;;24.46;36.57
46379;BME280;32084;42.254;22.744;2022-10-31T10:52:58;95703.00;;;24.46;37.23
46379;BME280;32084;42.254;22.744;2022-10-31T10:57:58;95712.63;;;24.36;36.63
46379;BME280;32084;42.254;22.744;2022-10-31T11:02:57;95708.53;;;24.27;36.36
46379;BME280;32084;42.254;22.744;2022-10-31T11:07:50;95707.81;;;24.20;36.36
46379;BME280;32084;42.254;22.744;2022-10-31T11:10:16;95708.19;;;24.24;36.71
46379;BME280;32084;42.254;22.744;2022-10-31T11:12:43;95697.25;;;24.24;36.71
46379;BME280;32084;42.254;22.744;2022-10-31T11:15:20;95694.06;;;24.27;36.34
46379;BME280;32084;42.254;22.744;2022-10-31T11:17:48;95694.97;;;24.21;36.22
46379;BME280;32084;42.254;22.744;2022-10-31T11:22:44;95693.19;;;24.14;36.22
46379;BME280;32084;42.254;22.744;2022-10-31T11:27:46;95683.44;;;24.19;36.62
46379;BME280;32084;42.254;22.744;2022-10-31T11:30:12;95682.41;;;24.20;36.75
46379;BME280;32084;42.254;22.744;2022-10-31T11:32:43;95686.19;;;24.19;36.57
46379;BME280;32084;42.254;22.744;2022-10-31T11:35:12;95687.94;;;24.13;36.63
46379;BME280;32084;42.254;22.744;2022-10-31T11:37:42;95683.66;;;24.05;36.19
46379;BME280;32084;42.254;22.744;2022-10-31T11:40:19;95675.09;;;24.02;35.98
46379;BME280;32084;42.254;22.744;2022-10-31T11:42:46;95675.72;;;24.04;36.53
46379;BME280;32084;42.254;22.744;2022-10-31T11:47:43;95675.47;;;24.05;35.94
46379;BME280;32084;42.254;22.744;2022-10-31T11:50:11;95680.69;;;24.07;36.44
46379;BME280;32084;42.254;22.744;2022-10-31T11:52:42;95676.53;;;24.04;36.73
46379;BME280;32084;42.254;22.744;2022-10-31T12:00:26;95665.47;;;23.99;36.62
46379;BME280;32084;42.254;22.744;2022-10-31T12:03:15;95665.09;;;23.95;37.18
46379;BME280;32084;42.254;22.744;2022-10-31T12:05:39;95662.84;;;23.92;37.14
46379;BME280;32084;42.254;22.744;2022-10-31T12:08:08;95667.47;;;23.92;37.06
46379;BME280;32084;42.254;22.744;2022-10-31T12:10:48;95659.75;;;23.89;37.30
46379;BME280;32084;42.254;22.744;2022-10-31T12:13:33;95658.44;;;23.91;36.89
46379;BME280;32084;42.254;22.744;2022-10-31T12:19:05;95655.13;;;23.89;37.15
46379;BME280;32084;42.254;22.744;2022-10-31T12:27:07;95656.88;;;23.84;37.27
46379;BME280;32084;42.254;22.744;2022-10-31T12:45:00;95647.50;;;23.61;37.06
46379;BME280;32084;42.254;22.744;2022-10-31T12:49:59;95654.34;;;23.52;37.45
46379;BME280;32084;42.254;22.744;2022-10-31T13:02:27;95673.16;;;23.42;36.86
46379;BME280;32084;42.254;22.744;2022-10-31T13:10:31;95668.91;;;23.27;37.70
46379;BME280;32084;42.254;22.744;2022-10-31T13:13:07;95672.13;;;23.24;37.21
46379;BME280;32084;42.254;22.744;2022-10-31T13:15:44;95671.75;;;23.21;37.49
46379;BME280;32084;42.254;22.744;2022-10-31T13:18:14;95681.44;;;23.16;37.63
46379;BME280;32084;42.254;22.744;2022-10-31T13:20:45;95667.31;;;23.19;37.44
46379;BME280;32084;42.254;22.744;2022-10-31T13:23:19;95677.03;;;23.15;36.92
46379;BME280;32084;42.254;22.744;2022-10-31T13:25:49;95668.25;;;23.13;37.44
46379;BME280;32084;42.254;22.744;2022-10-31T13:28:31;95669.28;;;23.12;38.01
46379;BME280;32084;42.254;22.744;2022-10-31T13:31:00;95673.47;;;23.15;37.35
46379;BME280;32084;42.254;22.744;2022-10-31T13:48:58;95666.69;;;22.99;38.19
46379;BME280;32084;42.254;22.744;2022-10-31T13:51:26;95669.66;;;22.97;38.52
46379;BME280;32084;42.254;22.744;2022-10-31T13:56:21;95667.00;;;22.91;38.45
46379;BME280;32084;42.254;22.744;2022-10-31T13:58:56;95667.44;;;22.88;38.85
46379;BME280;32084;42.254;22.744;2022-10-31T14:01:23;95666.00;;;22.85;38.85
46379;BME280;32084;42.254;22.744;2022-10-31T14:04:03;95663.97;;;22.80;38.71
46379;BME280;32084;42.254;22.744;2022-10-31T14:06:37;95670.63;;;22.85;38.36
46379;BME280;32084;42.254;22.744;2022-10-31T14:09:04;95666.09;;;22.78;38.95
46379;BME280;32084;42.254;22.744;2022-10-31T14:11:30;95668.16;;;22.76;38.84
46379;BME280;32084;42.254;22.744;2022-10-31T14:13:57;95666.09;;;22.78;38.71
46379;BME280;32084;42.254;22.744;2022-10-31T14:16:30;95666.53;;;22.75;38.79
46379;BME280;32084;42.254;22.744;2022-10-31T14:18:58;95668.88;;;22.72;38.74
46379;BME280;32084;42.254;22.744;2022-10-31T14:21:27;95671.38;;;22.73;38.66
46379;BME280;32084;42.254;22.744;2022-10-31T14:23:55;95661.50;;;22.72;39.00
46379;BME280;32084;42.254;22.744;2022-10-31T14:28:55;95666.22;;;22.65;38.96
46379;BME280;32084;42.254;22.744;2022-10-31T14:34:17;95669.19;;;22.57;39.37
46379;BME280;32084;42.254;22.744;2022-10-31T14:37:32;95674.25;;;22.53;39.39
46379;BME280;32084;42.254;22.744;2022-10-31T14:47:20;95667.31;;;22.32;39.60
46379;BME280;32084;42.254;22.744;2022-10-31T14:52:14;95662.13;;;22.24;39.73
46379;BME280;32084;42.254;22.744;2022-10-31T14:54:44;95661.53;;;22.22;39.79
46379;BME280;32084;42.254;22.744;2022-10-31T14:57:16;95656.97;;;22.16;39.99
46379;BME280;32084;42.254;22.744;2022-10-31T14:59:46;95659.72;;;22.09;39.89
46379;BME280;32084;42.254;22.744;2022-10-31T15:02:16;95664.34;;;22.09;40.05
46379;BME280;32084;42.254;22.744;2022-10-31T15:04:44;95656.22;;;22.02;39.97
46379;BME280;32084;42.254;22.744;2022-10-31T15:07:20;95658.53;;;21.98;39.85
46379;BME280;32084;42.254;22.744;2022-10-31T15:09:57;95663.59;;;21.95;40.13
46379;BME280;32084;42.254;22.744;2022-10-31T15:12:27;95665.28;;;21.89;40.18
46379;BME280;32084;42.254;22.744;2022-10-31T15:14:54;95658.88;;;21.83;40.45
46379;BME280;32084;42.254;22.744;2022-10-31T15:17:22;95662.22;;;21.79;40.41
46379;BME280;32084;42.254;22.744;2022-10-31T15:19:49;95657.66;;;21.73;41.78
46379;BME280;32084;42.254;22.744;2022-10-31T15:22:16;95667.81;;;21.59;41.56
46379;BME280;32084;42.254;22.744;2022-10-31T15:24:43;95669.09;;;21.50;41.70
46379;BME280;32084;42.254;22.744;2022-10-31T15:27:11;95674.13;;;21.39;42.42
46379;BME280;32084;42.254;22.744;2022-10-31T15:29:46;95672.53;;;21.18;42.98
46379;BME280;32084;42.254;22.744;2022-10-31T15:32:20;95673.19;;;21.07;42.82
46379;BME280;32084;42.254;22.744;2022-10-31T15:34:48;95673.91;;;20.89;43.03
46379;BME280;32084;42.254;22.744;2022-10-31T15:37:16;95671.63;;;20.79;42.80
46379;BME280;32084;42.254;22.744;2022-10-31T15:39:43;95672.91;;;20.70;43.55